Time;durP1;ratioP1;P1;durP2;ratioP2;P2;SDS_P1;SDS_P2;PMS_P1;PMS_P2;Temp;Humidity;BMP_temperature;BMP_pressure;BME280_temperature;BME280_humidity;BME280_pressure;Samples;Min_cycle;Max_cycle;Signal;HPM_P1;HPM_P2
2023/05/16 00:01:17;;;;;;;12.30;2.90;;;37.10;23.80;;;;;;5048439;28;20702;-64
2023/05/16 00:03:44;;;;;;;13.80;2.85;;;36.90;23.10;;;;;;5049527;28;20072;-62
2023/05/16 00:06:10;;;;;;;14.63;3.17;;;36.80;22.90;;;;;;5050821;28;20128;-62
2023/05/16 00:08:37;;;;;;;9.15;2.88;;;36.80;23.30;;;;;;5053686;28;20029;-66
2023/05/16 00:11:03;;;;;;;22.60;3.20;;;36.70;24.40;;;;;;5050475;28;20021;-62
2023/05/16 00:13:30;;;;;;;15.25;2.97;;;36.70;23.50;;;;;;5050305;28;20044;-69
2023/05/16 00:16:01;;;;;;;12.82;3.33;;;36.80;23.10;;;;;;5051162;28;20112;-62
2023/05/16 00:18:27;;;;;;;6.97;2.58;;;36.80;22.60;;;;;;5048668;28;20047;-64
2023/05/16 00:20:54;;;;;;;40.22;3.28;;;36.80;22.60;;;;;;5053515;28;20036;-61
2023/05/16 00:23:20;;;;;;;11.85;3.08;;;36.80;22.90;;;;;;5051973;28;20027;-61
2023/05/16 00:25:48;;;;;;;14.40;2.88;;;36.80;22.70;;;;;;5056113;28;20027;-67
2023/05/16 00:28:14;;;;;;;16.45;3.20;;;36.80;22.90;;;;;;5054689;28;20017;-61
2023/05/16 00:30:41;;;;;;;14.30;2.83;;;36.80;22.70;;;;;;5052363;28;20035;-61
2023/05/16 00:33:07;;;;;;;17.23;3.20;;;36.90;23.00;;;;;;5055654;28;20552;-61
2023/05/16 00:35:34;;;;;;;10.35;3.22;;;36.90;22.80;;;;;;5057552;28;20020;-61
2023/05/16 00:38:00;;;;;;;18.45;3.63;;;36.80;22.50;;;;;;5058018;28;20032;-61
2023/05/16 00:40:27;;;;;;;16.80;3.55;;;36.90;22.50;;;;;;5055558;28;20363;-64
2023/05/16 00:42:53;;;;;;;17.88;3.78;;;36.80;22.30;;;;;;5052445;28;20021;-66
2023/05/16 00:45:22;;;;;;;15.52;2.88;;;36.80;22.50;;;;;;5049678;28;20550;-64
2023/05/16 00:47:49;;;;;;;14.57;3.00;;;36.80;22.80;;;;;;5058075;28;20033;-64
2023/05/16 00:50:16;;;;;;;21.48;3.60;;;36.70;22.10;;;;;;5046840;28;20075;-63
2023/05/16 00:52:42;;;;;;;11.65;2.97;;;36.70;22.10;;;;;;5051081;28;20021;-62
2023/05/16 00:55:09;;;;;;;15.93;3.10;;;36.70;22.30;;;;;;5053257;28;20025;-64
2023/05/16 00:57:40;;;;;;;20.33;3.22;;;36.70;22.20;;;;;;5053206;28;20115;-62
2023/05/16 01:00:09;;;;;;;19.25;3.03;;;36.70;22.00;;;;;;5049270;28;20528;-61
2023/05/16 01:02:36;;;;;;;19.50;3.05;;;36.60;21.90;;;;;;5055433;28;20087;-63
2023/05/16 01:05:07;;;;;;;11.30;2.90;;;36.60;21.90;;;;;;5052047;28;20097;-62
2023/05/16 01:07:35;;;;;;;19.40;3.28;;;36.50;21.90;;;;;;5052004;28;20485;-63
2023/05/16 01:10:03;;;;;;;14.15;3.13;;;36.40;22.60;;;;;;5063320;28;20029;-61
2023/05/16 01:12:45;;;;;;;19.85;3.42;;;36.30;22.00;;;;;;5057038;28;20021;-64
2023/05/16 01:15:20;;;;;;;17.48;3.28;;;36.20;23.30;;;;;;5054699;28;20116;-63
2023/05/16 01:18:04;;;;;;;22.77;3.63;;;36.10;22.30;;;;;;5049431;28;20098;-62
2023/05/16 01:20:59;;;;;;;16.10;2.60;;;36.10;23.30;;;;;;5049671;28;20047;-62
2023/05/16 01:24:04;;;;;;;15.70;3.25;;;36.10;22.50;;;;;;5057179;28;20061;-64
2023/05/16 01:26:41;;;;;;;17.90;3.63;;;36.00;22.30;;;;;;5053668;28;20082;-63
2023/05/16 01:29:08;;;;;;;18.20;3.63;;;36.10;22.30;;;;;;5056416;28;20072;-66
2023/05/16 01:31:35;;;;;;;23.33;3.42;;;36.10;22.40;;;;;;5053409;28;20047;-67
2023/05/16 01:34:01;;;;;;;15.40;3.70;;;36.30;22.50;;;;;;5049520;28;20102;-64
2023/05/16 01:36:56;;;;;;;35.28;15.27;;;36.30;22.30;;;;;;5055031;28;20424;-66
2023/05/16 01:39:40;;;;;;;27.05;14.05;;;36.40;22.20;;;;;;5056996;28;20107;-63
2023/05/16 01:42:14;;;;;;;17.98;3.70;;;36.40;21.90;;;;;;5051532;28;20088;-65
2023/05/16 01:44:43;;;;;;;17.30;3.55;;;36.20;22.00;;;;;;5054386;28;20037;-60
2023/05/16 01:47:14;;;;;;;13.35;3.28;;;36.20;22.60;;;;;;5050120;28;20021;-63
2023/05/16 01:50:10;;;;;;;17.67;3.65;;;36.20;22.40;;;;;;5057612;28;20024;-63
2023/05/16 01:52:53;;;;;;;8.35;2.75;;;36.50;22.40;;;;;;5052252;28;20379;-64
2023/05/16 01:55:45;;;;;;;20.67;3.22;;;37.10;21.60;;;;;;5052152;28;20184;-65
2023/05/16 01:58:14;;;;;;;20.42;3.60;;;37.10;21.50;;;;;;5051834;28;20076;-64
2023/05/16 02:00:41;;;;;;;23.90;3.35;;;36.80;21.90;;;;;;5056697;28;20029;-63
2023/05/16 02:03:07;;;;;;;11.77;3.35;;;36.50;22.10;;;;;;5051627;28;20393;-64
2023/05/16 02:05:34;;;;;;;17.45;3.92;;;36.10;22.00;;;;;;5048472;28;20021;-63
2023/05/16 02:08:01;;;;;;;29.35;3.88;;;35.90;24.70;;;;;;5051495;28;20033;-62
2023/05/16 02:10:27;;;;;;;20.55;4.20;;;35.60;22.90;;;;;;5051870;28;20433;-62
2023/05/16 02:12:54;;;;;;;17.48;4.10;;;35.40;23.30;;;;;;5055162;28;20020;-61
2023/05/16 02:15:20;;;;;;;16.55;3.85;;;35.20;24.50;;;;;;5054377;28;20033;-60
2023/05/16 02:17:47;;;;;;;19.85;4.05;;;35.00;24.70;;;;;;5047791;28;20501;-63
2023/05/16 02:20:15;;;;;;;15.63;3.85;;;34.90;24.60;;;;;;5048146;28;20553;-62
2023/05/16 02:22:43;;;;;;;24.30;4.05;;;34.70;24.80;;;;;;5049056;28;20514;-67
2023/05/16 02:25:10;;;;;;;23.27;3.42;;;34.50;25.10;;;;;;5048441;28;20029;-61
2023/05/16 02:27:36;;;;;;;25.90;3.85;;;34.30;24.80;;;;;;5047862;28;21277;-65
2023/05/16 02:30:04;;;;;;;13.30;3.28;;;34.30;25.60;;;;;;5047200;28;20021;-64
2023/05/16 02:32:33;;;;;;;24.02;3.88;;;34.10;25.80;;;;;;5048630;28;20095;-62
2023/05/16 02:34:59;;;;;;;23.70;12.25;;;34.00;25.90;;;;;;5055774;28;20041;-64
2023/05/16 02:37:26;;;;;;;31.27;12.70;;;33.90;25.70;;;;;;5051640;28;20435;-62
2023/05/16 02:39:52;;;;;;;27.63;10.18;;;33.70;26.40;;;;;;5051266;28;20397;-63
2023/05/16 02:42:19;;;;;;;30.48;5.50;;;33.70;26.20;;;;;;5053420;28;20784;-60
2023/05/16 02:44:45;;;;;;;39.30;11.35;;;33.60;25.60;;;;;;5057919;28;20477;-63
2023/05/16 02:47:11;;;;;;;32.67;12.48;;;33.50;26.00;;;;;;5054505;28;20045;-66
2023/05/16 02:49:38;;;;;;;35.03;12.18;;;33.40;26.00;;;;;;5049726;28;20100;-68
2023/05/16 02:52:06;;;;;;;37.22;13.20;;;33.30;25.50;;;;;;5054152;28;20426;-65
2023/05/16 02:54:32;;;;;;;37.72;12.25;;;33.30;26.70;;;;;;5052064;28;20102;-67
2023/05/16 02:56:59;;;;;;;52.10;14.52;;;33.20;25.40;;;;;;5042790;28;20018;-69
2023/05/16 02:59:26;;;;;;;49.58;12.35;;;33.10;24.80;;;;;;5042652;28;20048;-66
2023/05/16 03:01:52;;;;;;;35.10;12.00;;;33.10;25.00;;;;;;5042900;28;20044;-62
2023/05/16 03:04:19;;;;;;;28.38;6.13;;;33.10;25.30;;;;;;5043259;28;20375;-65
2023/05/16 03:06:45;;;;;;;22.90;6.25;;;33.00;24.70;;;;;;5054785;28;20033;-64
2023/05/16 03:09:12;;;;;;;25.20;5.65;;;33.00;25.50;;;;;;5047136;28;20021;-67
2023/05/16 03:11:38;;;;;;;26.60;5.55;;;32.90;24.90;;;;;;5052980;28;20013;-66
2023/05/16 03:14:04;;;;;;;29.02;4.68;;;32.80;25.60;;;;;;5044781;28;20040;-65
2023/05/16 03:16:31;;;;;;;18.20;3.85;;;32.70;25.80;;;;;;5045528;28;20032;-65
2023/05/16 03:18:58;;;;;;;24.65;4.15;;;32.70;25.10;;;;;;5050348;28;20037;-64
2023/05/16 03:21:24;;;;;;;24.63;4.20;;;32.60;25.50;;;;;;5048048;28;20036;-65
2023/05/16 03:23:51;;;;;;;22.55;4.03;;;32.60;25.60;;;;;;5054735;28;20021;-65
2023/05/16 03:26:17;;;;;;;20.55;4.07;;;32.50;25.50;;;;;;5055092;28;20067;-66
2023/05/16 03:28:44;;;;;;;29.02;6.35;;;32.40;25.80;;;;;;5057272;28;20579;-68
2023/05/16 03:31:10;;;;;;;34.47;7.43;;;32.30;25.90;;;;;;5050441;28;20021;-65
2023/05/16 03:33:36;;;;;;;41.03;6.10;;;32.30;26.10;;;;;;5045470;28;20103;-65
2023/05/16 03:36:04;;;;;;;33.05;5.75;;;32.30;25.30;;;;;;5047210;28;20021;-65
2023/05/16 03:38:31;;;;;;;19.70;4.65;;;32.20;26.00;;;;;;5045599;28;20078;-66
2023/05/16 03:40:57;;;;;;;21.10;5.47;;;32.10;26.30;;;;;;5050621;28;20024;-66
2023/05/16 03:43:24;;;;;;;29.77;5.82;;;32.10;26.80;;;;;;5048528;28;20031;-66
2023/05/16 03:45:50;;;;;;;29.27;5.72;;;32.00;26.00;;;;;;5048268;28;20059;-64
2023/05/16 03:48:17;;;;;;;21.92;4.90;;;31.90;25.70;;;;;;5056630;28;20031;-64
2023/05/16 03:50:43;;;;;;;23.42;5.10;;;31.90;26.80;;;;;;5057254;28;20035;-64
2023/05/16 03:53:10;;;;;;;26.75;5.45;;;31.90;27.20;;;;;;5057585;28;20046;-64
2023/05/16 03:55:37;;;;;;;19.10;4.72;;;31.80;27.30;;;;;;5053547;28;20029;-65
2023/05/16 03:58:03;;;;;;;19.10;4.88;;;31.70;26.20;;;;;;5048702;28;20070;-64
2023/05/16 04:00:29;;;;;;;24.27;5.43;;;31.70;26.10;;;;;;5056079;28;20125;-63
2023/05/16 04:02:56;;;;;;;20.77;5.00;;;31.70;27.10;;;;;;5055477;28;20024;-62
2023/05/16 04:05:22;;;;;;;29.13;5.43;;;31.70;27.00;;;;;;5048502;28;20138;-63
2023/05/16 04:07:49;;;;;;;19.13;5.20;;;31.50;27.20;;;;;;5050177;28;20449;-67
2023/05/16 04:10:15;;;;;;;26.83;5.78;;;31.50;27.50;;;;;;5053359;28;20052;-66
2023/05/16 04:12:43;;;;;;;22.35;5.40;;;31.50;27.30;;;;;;5049334;28;20031;-68
2023/05/16 04:15:09;;;;;;;29.30;5.22;;;31.40;28.00;;;;;;5051036;28;20038;-65
2023/05/16 04:17:36;;;;;;;32.90;5.53;;;31.40;27.90;;;;;;5052727;28;20127;-65
2023/05/16 04:20:03;;;;;;;33.85;5.20;;;31.30;27.90;;;;;;5050265;28;20043;-66
2023/05/16 04:22:30;;;;;;;29.58;5.55;;;31.30;28.30;;;;;;5051596;28;20138;-65
2023/05/16 04:24:57;;;;;;;29.52;5.80;;;31.20;28.20;;;;;;5050610;28;20076;-66
2023/05/16 04:27:23;;;;;;;36.15;6.22;;;31.10;28.30;;;;;;5050006;28;20043;-66
2023/05/16 04:29:50;;;;;;;29.90;5.15;;;31.10;27.90;;;;;;5048842;28;20031;-65
2023/05/16 04:32:17;;;;;;;31.83;5.45;;;31.00;28.80;;;;;;5050488;28;20105;-66
2023/05/16 04:34:45;;;;;;;24.83;4.85;;;30.90;28.60;;;;;;5047554;28;20070;-65
2023/05/16 04:37:11;;;;;;;30.45;5.28;;;30.80;28.60;;;;;;5047605;28;20061;-66
2023/05/16 04:39:38;;;;;;;21.98;5.18;;;30.80;29.30;;;;;;5048532;28;20507;-66
2023/05/16 04:42:05;;;;;;;30.45;5.65;;;30.70;29.40;;;;;;5048191;28;20068;-66
2023/05/16 04:44:33;;;;;;;28.35;5.10;;;30.70;29.40;;;;;;5049209;28;20055;-64
2023/05/16 04:46:59;;;;;;;30.73;6.15;;;30.60;29.30;;;;;;5048672;28;20124;-65
2023/05/16 04:49:26;;;;;;;33.45;6.80;;;30.50;29.40;;;;;;5053396;28;20103;-64
2023/05/16 04:51:52;;;;;;;34.38;6.32;;;30.50;30.00;;;;;;5049340;28;20031;-64
2023/05/16 04:54:18;;;;;;;31.05;6.30;;;30.40;29.50;;;;;;5049674;28;20121;-64
2023/05/16 04:56:45;;;;;;;30.20;6.88;;;30.40;29.90;;;;;;5048541;28;20056;-65
2023/05/16 04:59:11;;;;;;;32.45;6.60;;;30.30;30.80;;;;;;5049804;28;20107;-64
2023/05/16 05:01:38;;;;;;;21.60;6.40;;;30.20;30.30;;;;;;5055795;28;20044;-62
2023/05/16 05:04:04;;;;;;;27.25;6.13;;;30.10;31.00;;;;;;5051194;28;20082;-64
2023/05/16 05:06:31;;;;;;;26.67;7.18;;;30.10;31.80;;;;;;5051662;28;20830;-66
2023/05/16 05:08:57;;;;;;;29.10;7.50;;;30.10;31.50;;;;;;5047360;28;20040;-62
2023/05/16 05:11:23;;;;;;;28.88;7.50;;;30.00;31.70;;;;;;5049183;28;20468;-66
2023/05/16 05:13:50;;;;;;;39.63;7.80;;;29.90;31.40;;;;;;5047866;28;20040;-64
2023/05/16 05:16:16;;;;;;;38.25;8.07;;;29.80;31.80;;;;;;5048522;28;20038;-65
2023/05/16 05:18:43;;;;;;;56.33;9.10;;;29.70;31.80;;;;;;5051597;28;20529;-64
2023/05/16 05:21:09;;;;;;;38.72;6.32;;;29.70;31.50;;;;;;5047212;28;20322;-68
2023/05/16 05:23:36;;;;;;;41.22;7.85;;;29.60;30.90;;;;;;5049059;28;20071;-64
2023/05/16 05:26:02;;;;;;;33.53;7.07;;;29.60;32.00;;;;;;5047919;28;20172;-66
2023/05/16 05:28:29;;;;;;;43.55;7.75;;;29.60;32.10;;;;;;5047692;28;20101;-64
2023/05/16 05:30:55;;;;;;;33.00;7.47;;;29.60;31.40;;;;;;5048322;28;20125;-62
2023/05/16 05:33:28;;;;;;;39.30;7.78;;;29.60;31.20;;;;;;5047458;28;20057;-64
2023/05/16 05:35:54;;;;;;;38.72;7.32;;;29.60;31.60;;;;;;5046972;28;20060;-64
2023/05/16 05:38:21;;;;;;;29.88;6.22;;;29.50;32.00;;;;;;5048604;28;20041;-63
2023/05/16 05:40:48;;;;;;;30.05;6.22;;;29.50;31.00;;;;;;5048933;28;20391;-62
2023/05/16 05:43:14;;;;;;;35.00;6.47;;;29.50;31.30;;;;;;5053718;28;20067;-62
2023/05/16 05:45:42;;;;;;;38.45;6.38;;;29.50;30.90;;;;;;5046585;28;20093;-63
2023/05/16 05:48:09;;;;;;;25.23;5.95;;;29.40;31.10;;;;;;5054576;28;20036;-65
2023/05/16 05:50:36;;;;;;;30.27;6.13;;;29.40;30.90;;;;;;5047305;28;20126;-71
2023/05/16 05:53:03;;;;;;;25.38;5.22;;;29.30;31.10;;;;;;5048695;28;20042;-66
2023/05/16 05:55:29;;;;;;;22.67;5.45;;;29.30;31.10;;;;;;5046508;28;20051;-66
2023/05/16 05:57:55;;;;;;;25.30;5.57;;;29.30;31.10;;;;;;5047889;28;20061;-64
2023/05/16 06:00:22;;;;;;;35.25;6.68;;;29.30;31.20;;;;;;5056817;28;20429;-65
2023/05/16 06:02:48;;;;;;;31.58;5.55;;;29.20;31.20;;;;;;5051433;28;20045;-63
2023/05/16 06:05:17;;;;;;;24.92;5.50;;;29.20;31.50;;;;;;5043540;28;20091;-66
2023/05/16 06:07:43;;;;;;;23.60;5.50;;;29.10;32.00;;;;;;5050252;28;20249;-65
2023/05/16 06:10:10;;;;;;;26.55;6.03;;;29.10;33.70;;;;;;5052509;28;20409;-65
2023/05/16 06:12:36;;;;;;;32.70;6.60;;;29.00;33.00;;;;;;5054035;28;20079;-64
2023/05/16 06:15:03;;;;;;;34.13;6.88;;;29.00;34.60;;;;;;5048062;28;20092;-65
2023/05/16 06:17:29;;;;;;;30.35;5.75;;;28.90;34.80;;;;;;5048242;28;20154;-65
2023/05/16 06:19:56;;;;;;;29.73;6.78;;;28.80;33.90;;;;;;5047403;28;20055;-64
2023/05/16 06:22:23;;;;;;;36.58;7.47;;;28.70;34.00;;;;;;5044937;28;20098;-64
2023/05/16 06:24:49;;;;;;;31.90;6.88;;;28.70;33.40;;;;;;5051838;28;20056;-66
2023/05/16 06:27:15;;;;;;;42.35;8.68;;;28.60;33.80;;;;;;5047305;28;20050;-63
2023/05/16 06:29:42;;;;;;;40.08;8.25;;;28.50;33.30;;;;;;5056032;28;20639;-65
2023/05/16 06:32:08;;;;;;;37.75;7.40;;;28.50;34.60;;;;;;5051196;28;20437;-66
2023/05/16 06:34:34;;;;;;;30.65;7.32;;;28.50;34.80;;;;;;5047272;28;20047;-64
2023/05/16 06:37:02;;;;;;;38.50;8.68;;;28.40;32.90;;;;;;5048697;28;20096;-67
2023/05/16 06:39:28;;;;;;;44.33;8.40;;;28.40;35.40;;;;;;5046039;28;20046;-65
2023/05/16 06:41:55;;;;;;;30.95;8.13;;;28.30;34.90;;;;;;5053508;28;20054;-64
2023/05/16 06:44:22;;;;;;;45.85;7.88;;;28.20;34.40;;;;;;5047101;28;20065;-64
2023/05/16 06:46:49;;;;;;;34.67;6.88;;;28.20;34.30;;;;;;5046387;28;20044;-66
2023/05/16 06:49:15;;;;;;;34.95;7.70;;;28.10;34.00;;;;;;5048489;28;20103;-66
2023/05/16 06:51:42;;;;;;;27.67;7.30;;;28.10;33.90;;;;;;5045926;28;20049;-65
2023/05/16 06:54:08;;;;;;;30.40;7.10;;;28.20;34.00;;;;;;5049535;28;20048;-66
2023/05/16 06:56:35;;;;;;;33.63;7.22;;;28.10;33.60;;;;;;5047996;28;20079;-66
2023/05/16 06:59:01;;;;;;;38.33;7.45;;;28.00;33.30;;;;;;5050244;28;20436;-65
2023/05/16 07:01:28;;;;;;;30.23;7.55;;;27.90;34.90;;;;;;5052009;28;20056;-65
2023/05/16 07:03:54;;;;;;;34.10;7.15;;;27.90;35.10;;;;;;5049486;28;20171;-65
2023/05/16 07:06:21;;;;;;;28.30;7.25;;;27.80;33.90;;;;;;5052446;28;20077;-67
2023/05/16 07:08:47;;;;;;;27.30;6.95;;;27.80;33.30;;;;;;5050047;28;20071;-65
2023/05/16 07:11:14;;;;;;;30.27;7.55;;;27.80;33.70;;;;;;5049579;28;20046;-65
2023/05/16 07:13:40;;;;;;;39.70;8.00;;;27.80;33.90;;;;;;5054250;28;20041;-65
2023/05/16 07:16:07;;;;;;;30.60;7.50;;;27.70;33.10;;;;;;5050455;28;20044;-64
2023/05/16 07:18:33;;;;;;;26.20;8.05;;;27.70;33.50;;;;;;5049810;28;20105;-67
2023/05/16 07:21:00;;;;;;;31.02;7.05;;;27.60;33.00;;;;;;5050609;28;20073;-66
2023/05/16 07:23:26;;;;;;;32.55;6.60;;;27.60;33.00;;;;;;5048980;28;20067;-66
2023/05/16 07:25:53;;;;;;;33.13;7.03;;;27.60;33.30;;;;;;5051289;28;20185;-65
2023/05/16 07:28:20;;;;;;;34.20;6.80;;;27.50;33.00;;;;;;5051649;28;20582;-63
2023/05/16 07:30:47;;;;;;;34.47;7.88;;;27.50;34.40;;;;;;5049906;28;20207;-66
2023/05/16 07:33:13;;;;;;;35.33;7.95;;;27.50;33.10;;;;;;5054534;28;20041;-66
2023/05/16 07:35:40;;;;;;;44.20;8.85;;;27.50;33.40;;;;;;5052212;28;20059;-65
2023/05/16 07:38:06;;;;;;;32.63;7.60;;;27.40;35.90;;;;;;5051530;28;20126;-65
2023/05/16 07:40:33;;;;;;;31.15;8.27;;;27.40;35.60;;;;;;5055205;28;20437;-68
2023/05/16 07:43:01;;;;;;;35.95;8.20;;;27.40;35.20;;;;;;5050933;28;20051;-69
2023/05/16 07:45:28;;;;;;;38.10;8.77;;;27.30;35.30;;;;;;5049272;28;20076;-66
2023/05/16 07:47:54;;;;;;;32.38;9.05;;;27.20;34.60;;;;;;5050253;28;20048;-66
2023/05/16 07:50:21;;;;;;;33.80;8.63;;;27.10;34.90;;;;;;5052545;28;20077;-65
2023/05/16 07:52:47;;;;;;;34.10;8.25;;;27.10;35.60;;;;;;5050431;28;20057;-66
2023/05/16 07:55:13;;;;;;;27.55;7.13;;;27.10;34.40;;;;;;5049171;28;20051;-66
2023/05/16 07:57:40;;;;;;;37.97;8.50;;;27.00;36.20;;;;;;5050997;28;20071;-65
2023/05/16 08:00:08;;;;;;;39.17;8.57;;;27.00;36.60;;;;;;5049624;28;20439;-65
2023/05/16 08:02:34;;;;;;;29.98;7.60;;;27.00;35.70;;;;;;5049777;28;20055;-66
2023/05/16 08:05:01;;;;;;;37.53;7.88;;;27.00;35.50;;;;;;5048635;28;20462;-66
2023/05/16 08:07:27;;;;;;;32.17;6.97;;;26.90;34.70;;;;;;5054067;28;20097;-68
2023/05/16 08:09:54;;;;;;;35.50;7.72;;;26.80;35.80;;;;;;5050299;28;20050;-67
2023/05/16 08:12:20;;;;;;;34.47;7.80;;;26.70;35.80;;;;;;5050234;28;20050;-66
2023/05/16 08:14:46;;;;;;;31.60;6.97;;;26.70;35.20;;;;;;5048721;28;20054;-65
2023/05/16 08:17:13;;;;;;;36.50;7.53;;;26.70;35.50;;;;;;5049658;28;20085;-66
2023/05/16 08:19:39;;;;;;;31.40;7.40;;;26.60;35.20;;;;;;5049664;28;20054;-66
2023/05/16 08:22:06;;;;;;;37.47;6.75;;;26.50;34.20;;;;;;5048983;28;20075;-64
2023/05/16 08:24:33;;;;;;;31.52;7.20;;;26.50;35.20;;;;;;5059918;28;20577;-65
2023/05/16 08:26:59;;;;;;;31.33;6.82;;;26.50;36.50;;;;;;5048037;28;20066;-65
2023/05/16 08:29:26;;;;;;;26.95;7.28;;;26.50;37.10;;;;;;5048785;28;20105;-64
2023/05/16 08:31:52;;;;;;;27.65;7.50;;;26.40;36.40;;;;;;5049776;28;20517;-66
2023/05/16 08:34:18;;;;;;;30.50;7.07;;;26.40;36.00;;;;;;5048623;28;20052;-65
2023/05/16 08:36:45;;;;;;;31.83;8.52;;;26.40;36.00;;;;;;5051600;28;21899;-65
2023/05/16 08:39:11;;;;;;;33.08;6.90;;;26.30;35.80;;;;;;5050861;28;20059;-65
2023/05/16 08:41:38;;;;;;;28.05;7.88;;;26.30;38.10;;;;;;5048828;28;20559;-64
2023/05/16 08:44:05;;;;;;;31.45;7.07;;;26.30;37.70;;;;;;5047952;28;20521;-65
2023/05/16 08:46:35;;;;;;;32.25;6.93;;;26.30;36.10;;;;;;5048412;28;20127;-65
2023/05/16 08:49:06;;;;;;;33.53;7.07;;;26.20;36.80;;;;;;5061026;28;20457;-66
2023/05/16 08:51:34;;;;;;;35.35;6.40;;;26.20;36.70;;;;;;5056758;28;20060;-66
2023/05/16 08:54:05;;;;;;;57.45;12.23;;;26.20;37.20;;;;;;5049240;28;20598;-66
2023/05/16 08:56:34;;;;;;;28.98;6.85;;;26.20;36.70;;;;;;5046660;28;20067;-66
2023/05/16 08:59:01;;;;;;;27.08;5.57;;;26.30;36.20;;;;;;5057918;28;20048;-65
2023/05/16 09:01:29;;;;;;;30.88;6.20;;;26.30;36.50;;;;;;5047413;28;20779;-66
2023/05/16 09:03:56;;;;;;;28.25;6.15;;;26.20;37.10;;;;;;5047489;28;20114;-64
2023/05/16 09:06:23;;;;;;;26.90;5.70;;;26.20;37.00;;;;;;5053801;28;20144;-68
2023/05/16 09:08:50;;;;;;;31.10;5.93;;;26.30;37.60;;;;;;5049689;28;20136;-66
2023/05/16 09:11:16;;;;;;;16.60;4.65;;;26.20;37.00;;;;;;5050479;28;20559;-67
2023/05/16 09:13:42;;;;;;;20.83;5.30;;;26.20;37.40;;;;;;5048796;28;20120;-66
2023/05/16 09:16:09;;;;;;;18.55;4.68;;;26.00;40.00;;;;;;5053552;28;20055;-68
2023/05/16 09:18:36;;;;;;;25.98;5.53;;;26.00;39.70;;;;;;5046323;28;20054;-67
2023/05/16 09:21:06;;;;;;;29.00;5.80;;;26.00;38.80;;;;;;5045396;28;20462;-66
2023/05/16 09:23:34;;;;;;;22.40;5.40;;;26.00;37.80;;;;;;5051750;28;20062;-66
2023/05/16 09:26:00;;;;;;;22.17;5.05;;;26.00;37.70;;;;;;5050199;28;20472;-65
2023/05/16 09:28:27;;;;;;;25.30;5.47;;;26.00;38.70;;;;;;5051032;28;20046;-66
2023/05/16 09:30:54;;;;;;;22.75;5.47;;;25.90;39.70;;;;;;5063505;28;20131;-67
2023/05/16 09:33:26;;;;;;;29.63;5.50;;;25.80;38.50;;;;;;5048897;28;20074;-65
2023/05/16 09:36:00;;;;;;;19.48;5.82;;;25.80;38.60;;;;;;5047924;28;20141;-64
2023/05/16 09:38:27;;;;;;;27.27;5.13;;;25.80;40.10;;;;;;5047783;28;20064;-66
2023/05/16 09:40:54;;;;;;;21.30;5.10;;;25.70;39.30;;;;;;5048415;28;20058;-68
2023/05/16 16:11:38;;;;;;;37.07;7.53;;;30.80;42.80;;;;;;5071261;28;20863;-66
2023/05/16 16:14:07;;;;;;;44.67;9.10;;;30.90;44.00;;;;;;5075627;28;20040;-66
2023/05/16 16:16:35;;;;;;;34.78;7.90;;;31.20;43.30;;;;;;5074600;28;20036;-65
2023/05/16 16:19:02;;;;;;;38.58;8.50;;;31.40;42.40;;;;;;5066586;28;20099;-66
2023/05/16 16:21:28;;;;;;;41.83;8.85;;;31.50;41.70;;;;;;5068163;28;20032;-65
2023/05/16 16:23:55;;;;;;;44.85;8.52;;;31.70;42.60;;;;;;5071098;28;20092;-66
2023/05/16 16:26:21;;;;;;;44.40;8.20;;;31.90;42.60;;;;;;5075520;28;20031;-66
2023/05/16 16:28:49;;;;;;;46.17;7.97;;;32.00;42.20;;;;;;5074481;28;20405;-66
2023/05/16 16:31:16;;;;;;;47.78;8.55;;;32.10;41.80;;;;;;5072739;28;20360;-65
2023/05/16 16:33:42;;;;;;;61.65;9.13;;;32.40;41.80;;;;;;5073003;28;20040;-64
2023/05/16 16:36:09;;;;;;;56.63;8.95;;;32.60;41.70;;;;;;5071692;28;20027;-64
2023/05/16 16:38:35;;;;;;;42.00;7.97;;;32.70;42.50;;;;;;5071846;28;20499;-66
2023/05/16 16:41:02;;;;;;;49.05;7.68;;;32.90;41.60;;;;;;5068761;28;20028;-67
2023/05/16 16:43:28;;;;;;;49.95;9.20;;;33.00;41.70;;;;;;5072222;28;20099;-64
2023/05/16 16:45:55;;;;;;;47.22;8.40;;;33.10;42.10;;;;;;5071954;28;20394;-66
2023/05/16 16:48:21;;;;;;;54.17;9.05;;;33.30;41.50;;;;;;5069131;28;20028;-66
2023/05/16 16:50:47;;;;;;;40.20;8.73;;;33.40;40.80;;;;;;5069969;28;20032;-65
2023/05/16 16:53:14;;;;;;;54.35;8.90;;;33.10;41.20;;;;;;5072107;28;20020;-65
2023/05/16 16:55:40;;;;;;;45.00;8.57;;;33.40;40.50;;;;;;5063956;28;20017;-66
2023/05/16 16:58:07;;;;;;;41.50;8.05;;;33.60;40.30;;;;;;5063313;28;20033;-67
2023/05/16 17:00:33;;;;;;;47.42;8.70;;;33.80;39.60;;;;;;5064850;28;20104;-66
2023/05/16 17:03:02;;;;;;;44.13;8.65;;;34.00;39.50;;;;;;5065712;28;20024;-67
2023/05/16 17:05:28;;;;;;;44.55;7.80;;;34.00;39.00;;;;;;5071191;28;20425;-66
2023/05/16 17:07:55;;;;;;;31.17;7.80;;;34.20;38.90;;;;;;5073166;28;20049;-65
2023/05/16 17:10:22;;;;;;;36.50;7.97;;;34.40;38.80;;;;;;5074553;28;20423;-65
2023/05/16 17:12:48;;;;;;;37.10;7.55;;;34.60;38.20;;;;;;5073448;28;20051;-67
2023/05/16 17:15:16;;;;;;;35.58;8.38;;;34.80;37.00;;;;;;5070776;28;20024;-66
2023/05/16 17:17:45;;;;;;;37.45;7.35;;;34.60;37.10;;;;;;5063437;28;20012;-66
2023/05/16 17:20:12;;;;;;;34.00;7.22;;;34.80;37.20;;;;;;5066971;28;20471;-65
2023/05/16 17:22:39;;;;;;;50.45;8.18;;;34.90;36.50;;;;;;5056943;28;20103;-66
2023/05/16 17:25:06;;;;;;;36.35;7.75;;;35.30;36.40;;;;;;5053216;28;20527;-67
2023/05/16 17:27:33;;;;;;;30.00;8.13;;;35.40;36.60;;;;;;5059113;28;20036;-66
2023/05/16 17:29:59;;;;;;;46.22;7.72;;;35.40;35.70;;;;;;5058394;28;20387;-67
2023/05/16 17:32:26;;;;;;;40.13;7.50;;;35.10;36.40;;;;;;5058392;28;20422;-65
2023/05/16 17:34:53;;;;;;;40.10;7.13;;;35.10;35.60;;;;;;5056689;28;20096;-66
2023/05/16 17:37:19;;;;;;;43.78;7.25;;;35.30;35.10;;;;;;5055813;28;20491;-65
2023/05/16 17:39:46;;;;;;;37.25;7.10;;;35.60;34.70;;;;;;5060118;28;20475;-65
2023/05/16 17:42:12;;;;;;;36.30;6.63;;;35.90;35.50;;;;;;5051763;28;20024;-64
2023/05/16 17:44:39;;;;;;;56.05;7.32;;;36.00;34.50;;;;;;5062780;28;20471;-66
2023/05/16 17:47:06;;;;;;;31.75;7.30;;;36.30;33.40;;;;;;5056752;28;20037;-66
2023/05/16 17:49:33;;;;;;;37.10;7.97;;;36.50;33.60;;;;;;5056799;28;20483;-65
2023/05/16 17:52:00;;;;;;;57.38;14.23;;;36.40;32.90;;;;;;5058542;28;20032;-65
2023/05/16 17:54:29;;;;;;;43.90;13.35;;;35.80;32.90;;;;;;5057694;28;20034;-66
2023/05/16 17:56:56;;;;;;;37.58;13.18;;;36.10;32.10;;;;;;5062852;28;20021;-66
2023/05/16 17:59:23;;;;;;;24.00;5.70;;;36.50;31.50;;;;;;5051910;28;20499;-65
2023/05/16 18:01:49;;;;;;;42.22;11.00;;;36.20;31.20;;;;;;5056515;28;20052;-66
2023/05/16 18:04:18;;;;;;;22.10;6.47;;;36.10;31.90;;;;;;5058409;28;20025;-67
2023/05/16 18:06:45;;;;;;;96.30;10.27;;;36.40;31.20;;;;;;5057702;28;20026;-65
2023/05/16 18:09:13;;;;;;;30.13;6.18;;;36.30;31.60;;;;;;5057100;28;20017;-67
2023/05/16 18:11:40;;;;;;;318.63;25.23;;;35.90;31.90;;;;;;5055711;28;20103;-65
2023/05/16 18:14:14;;;;;;;69.45;9.23;;;36.30;32.90;;;;;;5051276;28;20024;-65
2023/05/16 18:16:40;;;;;;;48.13;7.25;;;36.70;31.60;;;;;;5048834;28;20044;-63
2023/05/16 18:19:07;;;;;;;33.85;6.07;;;36.80;32.30;;;;;;5048592;28;20078;-66
2023/05/16 18:21:35;;;;;;;27.45;5.68;;;37.00;32.10;;;;;;5050790;28;20025;-69
2023/05/16 18:24:01;;;;;;;33.30;6.90;;;36.90;31.40;;;;;;5053171;28;20107;-67
2023/05/16 18:26:28;;;;;;;38.17;7.38;;;37.00;32.40;;;;;;5047975;28;20033;-67
2023/05/16 18:28:55;;;;;;;686.95;58.10;;;37.40;32.00;;;;;;5046580;28;20052;-71
2023/05/16 18:31:21;;;;;;;45.35;8.00;;;37.30;31.20;;;;;;5048396;28;20466;-66
2023/05/16 18:33:48;;;;;;;32.28;6.68;;;37.40;30.60;;;;;;5048674;28;20029;-68
2023/05/16 18:36:15;;;;;;;42.10;6.72;;;37.10;31.10;;;;;;5049894;28;20108;-68
2023/05/16 18:38:41;;;;;;;36.45;6.15;;;37.40;30.20;;;;;;5048393;28;20037;-67
2023/05/16 18:41:08;;;;;;;31.30;5.68;;;37.40;29.40;;;;;;5049007;28;20504;-67
2023/05/16 18:43:35;;;;;;;69.90;6.97;;;37.80;28.80;;;;;;5048120;28;20032;-66
2023/05/16 18:46:02;;;;;;;37.78;6.07;;;37.80;29.10;;;;;;5047018;28;20090;-68
2023/05/16 18:48:29;;;;;;;23.02;5.78;;;38.00;28.50;;;;;;5047285;28;20100;-68
2023/05/16 18:50:56;;;;;;;34.97;6.43;;;37.80;27.70;;;;;;5050594;28;20025;-66
2023/05/16 18:53:22;;;;;;;38.90;6.43;;;37.90;28.90;;;;;;5044952;28;20026;-67
2023/05/16 18:55:48;;;;;;;32.72;6.43;;;37.70;30.60;;;;;;5048573;28;20418;-66
2023/05/16 18:58:15;;;;;;;58.97;8.68;;;37.80;32.20;;;;;;5046699;28;20407;-68
2023/05/16 19:00:41;;;;;;;37.20;6.65;;;37.70;40.20;;;;;;5049821;28;20029;-76
2023/05/16 19:03:09;;;;;;;26.75;5.45;;;37.40;32.60;;;;;;5053230;28;20025;-74
2023/05/16 19:05:36;;;;;;;26.45;4.90;;;37.20;30.40;;;;;;5048214;28;20056;-71